Time;durP1;ratioP1;P1;durP2;ratioP2;P2;SDS_P1;SDS_P2;PMS_P1;PMS_P2;Temp;Humidity;BMP_temperature;BMP_pressure;BME280_temperature;BME280_humidity;BME280_pressure;Samples;Min_cycle;Max_cycle;Signal;HPM_P1;HPM_P2
2024/02/10 00:00:35;;;;;;;7.07;4.73;;;12.70;99.90;;;;;;5032165;28;20199;-75
2024/02/10 00:03:02;;;;;;;6.80;6.20;;;12.70;99.90;;;;;;5053101;28;20184;-75
2024/02/10 00:05:28;;;;;;;16.63;7.70;;;12.70;99.90;;;;;;5060092;28;20696;-75
2024/02/10 00:07:55;;;;;;;8.37;6.70;;;12.70;99.90;;;;;;5039219;28;20726;-75
2024/02/10 00:10:24;;;;;;;7.67;5.90;;;12.70;99.90;;;;;;5049224;28;20608;-75
2024/02/10 00:12:51;;;;;;;6.70;5.87;;;12.70;99.90;;;;;;5043860;28;20627;-76
2024/02/10 00:15:18;;;;;;;7.73;5.53;;;12.70;99.90;;;;;;5053160;28;20674;-75
2024/02/10 00:17:45;;;;;;;11.40;7.50;;;12.70;99.90;;;;;;5053010;28;20580;-75
2024/02/10 00:20:15;;;;;;;10.93;7.37;;;12.70;99.90;;;;;;5035406;28;21080;-75
2024/02/10 00:22:46;;;;;;;11.00;9.30;;;12.60;99.90;;;;;;5035285;28;20721;-75
2024/02/10 00:25:12;;;;;;;10.00;6.77;;;12.60;99.90;;;;;;5052748;28;20590;-75
2024/02/10 00:27:39;;;;;;;10.17;7.40;;;12.60;99.90;;;;;;5034779;28;20598;-75
2024/02/10 00:30:07;;;;;;;7.57;6.07;;;12.60;99.90;;;;;;5035393;28;20622;-75
2024/02/10 00:32:33;;;;;;;7.73;5.10;;;12.60;99.90;;;;;;5045240;28;20639;-75
2024/02/10 00:34:59;;;;;;;9.17;4.50;;;12.60;99.90;;;;;;5034639;28;21152;-75
2024/02/10 00:37:25;;;;;;;5.23;4.73;;;12.60;99.90;;;;;;5025454;28;20677;-75
2024/02/10 00:39:51;;;;;;;5.43;4.93;;;12.60;99.90;;;;;;5072733;28;20613;-75
2024/02/10 00:42:18;;;;;;;4.53;3.97;;;12.60;99.90;;;;;;5054617;28;20176;-76
2024/02/10 00:44:51;;;;;;;4.60;4.00;;;12.60;99.90;;;;;;5072336;28;20190;-75
2024/02/10 00:47:17;;;;;;;4.77;3.80;;;12.60;99.90;;;;;;5094573;22;20665;-76
2024/02/10 00:49:43;;;;;;;5.67;4.20;;;12.60;99.90;;;;;;5074992;28;20585;-76
2024/02/10 00:52:09;;;;;;;4.30;3.83;;;12.60;99.90;;;;;;5065140;28;20612;-76
2024/02/10 00:54:37;;;;;;;4.63;3.57;;;12.60;99.90;;;;;;5092425;28;21028;-76
2024/02/10 00:57:10;;;;;;;5.57;3.50;;;12.60;99.90;;;;;;5084360;28;20637;-76
2024/02/10 00:59:40;;;;;;;4.67;3.70;;;12.60;99.90;;;;;;5092793;28;20593;-76
2024/02/10 01:02:08;;;;;;;6.80;3.73;;;12.70;99.90;;;;;;5067203;28;20600;-76
2024/02/10 01:04:34;;;;;;;4.20;3.37;;;12.60;99.90;;;;;;5100405;28;20957;-76
2024/02/10 01:07:01;;;;;;;4.17;3.10;;;12.70;99.90;;;;;;5075109;28;21008;-77
2024/02/10 01:09:28;;;;;;;3.33;2.60;;;12.70;99.90;;;;;;5074533;28;20590;-77
2024/02/10 01:11:54;;;;;;;4.47;3.37;;;12.70;99.90;;;;;;5092724;28;20937;-76
2024/02/10 01:14:20;;;;;;;6.00;2.90;;;12.70;99.90;;;;;;5079140;28;20590;-77
2024/02/10 01:16:47;;;;;;;3.80;2.53;;;12.70;99.90;;;;;;5057754;28;20602;-76
2024/02/10 01:19:17;;;;;;;4.23;3.83;;;12.70;99.90;;;;;;5074479;28;20238;-76
2024/02/10 01:21:43;;;;;;;3.60;2.83;;;12.70;99.90;;;;;;5057749;28;20574;-77
2024/02/10 01:24:09;;;;;;;2.20;2.00;;;12.70;99.90;;;;;;5077674;28;20577;-77
2024/02/10 01:26:35;;;;;;;5.45;2.85;;;12.60;99.90;;;;;;5078517;28;20672;-76
2024/02/10 01:29:04;;;;;;;4.03;3.20;;;12.60;99.90;;;;;;5076477;28;20184;-76
2024/02/10 01:31:31;;;;;;;2.60;2.10;;;12.60;99.90;;;;;;5097567;28;20617;-77
2024/02/10 01:33:57;;;;;;;3.60;2.93;;;12.60;99.90;;;;;;5073973;28;21419;-77
2024/02/10 01:36:23;;;;;;;3.87;2.63;;;12.60;99.90;;;;;;5056762;28;20578;-76
2024/02/10 01:38:49;;;;;;;3.33;3.03;;;12.60;99.90;;;;;;5056635;28;20179;-76
2024/02/10 01:41:15;;;;;;;3.00;2.60;;;12.60;99.90;;;;;;5092447;28;20633;-76
2024/02/10 01:43:41;;;;;;;6.93;2.70;;;12.60;99.90;;;;;;5057505;28;20589;-76
2024/02/10 01:46:17;;;;;;;2.97;2.00;;;12.60;99.90;;;;;;5073815;28;20588;-76
2024/02/10 01:48:44;;;;;;;3.80;3.20;;;12.60;99.90;;;;;;5082228;28;20616;-76
2024/02/10 01:51:11;;;;;;;3.83;2.60;;;12.60;99.90;;;;;;5074179;28;20992;-76
2024/02/10 01:53:39;;;;;;;2.90;2.07;;;12.60;99.90;;;;;;5077269;28;20645;-76
2024/02/10 01:56:08;;;;;;;3.17;1.90;;;12.60;99.90;;;;;;5073235;28;20593;-77
2024/02/10 01:58:34;;;;;;;3.17;2.80;;;12.60;99.90;;;;;;5073496;28;20613;-76
2024/02/10 02:01:00;;;;;;;2.40;2.00;;;12.60;99.90;;;;;;5082001;28;20608;-77
2024/02/10 02:03:26;;;;;;;4.20;2.10;;;12.60;99.90;;;;;;5073760;28;20602;-76
2024/02/10 02:05:54;;;;;;;4.13;2.07;;;12.60;99.90;;;;;;5093000;28;20670;-76
2024/02/10 02:08:20;;;;;;;2.43;2.07;;;12.60;99.90;;;;;;5073386;28;20196;-76
2024/02/10 02:10:49;;;;;;;2.30;1.80;;;12.60;99.90;;;;;;5079114;28;21138;-76
2024/02/10 02:13:22;;;;;;;3.50;2.57;;;12.50;99.90;;;;;;5080790;28;20633;-76
2024/02/10 02:15:53;;;;;;;3.70;2.50;;;12.50;99.90;;;;;;5072918;28;20633;-76
2024/02/10 02:18:18;;;;;;;4.90;2.53;;;12.50;99.90;;;;;;5073264;28;20651;-77
2024/02/10 02:20:47;;;;;;;3.60;2.70;;;12.50;99.90;;;;;;5078776;28;20686;-76
2024/02/10 02:23:18;;;;;;;2.93;2.30;;;12.50;99.90;;;;;;5081041;28;20175;-76
2024/02/10 02:25:50;;;;;;;3.50;2.47;;;12.50;99.90;;;;;;5072466;28;20585;-77
2024/02/10 02:28:17;;;;;;;2.67;2.47;;;12.50;99.90;;;;;;5056543;28;20621;-77
2024/02/10 02:30:44;;;;;;;2.87;2.23;;;12.60;99.90;;;;;;5073430;28;20592;-76
2024/02/10 02:33:10;;;;;;;4.23;2.80;;;12.60;99.90;;;;;;5081528;28;20637;-76
2024/02/10 02:35:40;;;;;;;2.67;2.20;;;12.60;99.90;;;;;;5072779;28;20673;-77
2024/02/10 02:38:06;;;;;;;6.40;2.40;;;12.50;99.90;;;;;;5090830;28;20990;-76
2024/02/10 02:40:33;;;;;;;3.30;2.00;;;12.50;99.90;;;;;;5091066;28;20573;-76
2024/02/10 02:43:05;;;;;;;5.83;2.50;;;12.50;99.90;;;;;;5075336;28;20585;-76
2024/02/10 02:45:30;;;;;;;3.53;2.10;;;12.50;99.90;;;;;;5096121;28;20578;-76
2024/02/10 02:48:03;;;;;;;2.10;1.60;;;12.40;99.90;;;;;;5072398;28;20640;-76
2024/02/10 02:50:30;;;;;;;2.73;1.70;;;12.40;99.90;;;;;;5071274;28;20197;-75
2024/02/10 02:53:00;;;;;;;2.30;1.60;;;12.40;99.90;;;;;;5090848;28;21261;-76
2024/02/10 02:55:27;;;;;;;2.95;1.98;;;12.40;99.90;;;;;;5072456;28;20665;-75
2024/02/10 02:57:52;;;;;;;3.00;1.90;;;12.30;99.90;;;;;;5073077;28;20724;-77
2024/02/10 03:00:18;;;;;;;3.30;1.80;;;12.30;99.90;;;;;;5055726;28;20577;-77
2024/02/10 03:02:46;;;;;;;2.40;1.70;;;12.30;99.90;;;;;;5072613;28;20609;-76
2024/02/10 03:05:12;;;;;;;2.10;1.50;;;12.20;99.90;;;;;;5074969;28;21033;-77
2024/02/10 03:07:45;;;;;;;2.40;2.20;;;12.20;99.90;;;;;;5076879;28;20908;-76
2024/02/10 03:10:15;;;;;;;3.03;2.23;;;12.10;99.90;;;;;;5072337;28;20676;-76
2024/02/10 03:12:41;;;;;;;2.10;1.40;;;12.10;99.90;;;;;;5090401;28;20720;-76
2024/02/10 03:15:12;;;;;;;3.00;1.70;;;12.10;99.90;;;;;;5071745;28;20179;-76
2024/02/10 03:17:38;;;;;;;2.05;1.20;;;12.00;99.90;;;;;;5087760;28;20718;-77
2024/02/10 03:20:05;;;;;;;2.00;1.33;;;12.00;99.90;;;;;;5076193;28;20168;-75
2024/02/10 03:22:31;;;;;;;2.60;1.63;;;12.00;99.90;;;;;;5090033;28;20582;-76
2024/02/10 03:24:57;;;;;;;2.17;1.42;;;12.00;99.90;;;;;;5089622;28;20191;-76
2024/02/10 03:27:23;;;;;;;2.20;1.67;;;11.90;99.90;;;;;;5071927;28;20192;-76
2024/02/10 03:29:50;;;;;;;2.80;1.53;;;11.90;99.90;;;;;;5071820;28;20187;-76
2024/02/10 03:32:16;;;;;;;3.57;1.73;;;11.90;99.90;;;;;;5055307;28;20659;-76
2024/02/10 03:34:43;;;;;;;2.47;1.60;;;11.90;99.90;;;;;;5054309;28;21150;-76
2024/02/10 03:37:10;;;;;;;1.98;1.42;;;11.80;99.90;;;;;;5086267;28;20618;-75
2024/02/10 03:39:37;;;;;;;2.20;1.25;;;11.80;99.90;;;;;;5066264;28;20174;-76
2024/02/10 03:42:04;;;;;;;2.22;1.50;;;11.80;99.90;;;;;;5085607;28;20276;-76
2024/02/10 03:44:30;;;;;;;3.38;1.88;;;11.80;99.90;;;;;;5093295;28;20179;-76
2024/02/10 03:46:58;;;;;;;6.60;2.40;;;11.80;99.90;;;;;;5075054;28;20211;-76
2024/02/10 03:49:23;;;;;;;2.00;1.75;;;11.70;99.90;;;;;;5057913;28;20168;-75
2024/02/10 03:51:49;;;;;;;3.30;1.53;;;11.70;99.90;;;;;;5066343;28;20229;-76
2024/02/10 03:54:15;;;;;;;2.00;1.43;;;11.70;99.90;;;;;;5057571;28;20737;-76
2024/02/10 03:56:41;;;;;;;2.10;1.50;;;11.70;99.90;;;;;;5078587;28;20728;-75
2024/02/10 03:59:08;;;;;;;2.97;1.70;;;11.70;99.90;;;;;;5094065;28;20603;-76
2024/02/10 04:01:34;;;;;;;2.78;2.10;;;11.70;99.90;;;;;;5075417;28;20569;-76
2024/02/10 04:04:02;;;;;;;3.42;1.85;;;11.60;99.90;;;;;;5065739;28;20270;-76
2024/02/10 04:06:28;;;;;;;2.47;1.70;;;11.60;99.90;;;;;;5093788;28;20562;-76
2024/02/10 04:08:55;;;;;;;3.40;1.90;;;11.60;99.90;;;;;;5093437;28;20241;-76
2024/02/10 04:11:20;;;;;;;2.08;1.38;;;11.60;99.90;;;;;;5075521;28;20581;-76
2024/02/10 04:13:47;;;;;;;2.53;1.63;;;11.60;99.90;;;;;;5075580;28;20199;-76
2024/02/10 04:16:13;;;;;;;1.98;1.65;;;11.50;99.90;;;;;;5074775;28;21205;-76
2024/02/10 04:18:42;;;;;;;2.22;1.50;;;11.50;99.90;;;;;;5074670;28;20346;-77
2024/02/10 04:21:09;;;;;;;2.08;1.50;;;11.50;99.90;;;;;;5072716;28;20225;-76
2024/02/10 04:23:37;;;;;;;2.60;1.80;;;11.50;99.90;;;;;;5075347;28;20577;-76
2024/02/10 04:26:06;;;;;;;2.05;1.63;;;11.50;99.90;;;;;;5074988;28;20179;-76
2024/02/10 04:28:35;;;;;;;2.78;1.75;;;11.50;99.90;;;;;;5075245;28;20810;-76
2024/02/10 04:31:01;;;;;;;2.35;1.60;;;11.40;99.90;;;;;;5074409;28;20187;-76
2024/02/10 04:33:27;;;;;;;2.83;2.00;;;11.40;99.90;;;;;;5075387;28;20192;-76
2024/02/10 04:35:52;;;;;;;3.03;2.20;;;11.40;99.90;;;;;;5101188;28;20180;-76
2024/02/10 04:38:18;;;;;;;2.83;2.30;;;11.30;99.90;;;;;;5073766;28;20194;-76
2024/02/10 04:40:45;;;;;;;3.83;1.93;;;11.30;99.90;;;;;;5056774;28;20176;-76
2024/02/10 04:43:12;;;;;;;2.53;2.08;;;11.30;99.90;;;;;;5057370;28;20278;-76
2024/02/10 04:45:38;;;;;;;2.70;1.92;;;11.30;99.90;;;;;;5097159;28;20171;-76
2024/02/10 04:48:07;;;;;;;2.53;1.80;;;11.30;99.90;;;;;;5076111;28;20718;-76
2024/02/10 04:50:33;;;;;;;3.35;2.95;;;11.30;99.90;;;;;;5057921;28;20214;-76
2024/02/10 04:52:59;;;;;;;2.83;2.50;;;11.30;99.90;;;;;;5093199;28;20227;-76
2024/02/10 04:55:26;;;;;;;3.67;2.03;;;11.20;99.90;;;;;;5074374;28;20613;-77
2024/02/10 04:57:52;;;;;;;3.65;2.60;;;11.30;99.90;;;;;;5083169;28;20206;-76
2024/02/10 05:00:20;;;;;;;2.72;2.47;;;11.20;99.90;;;;;;5066858;28;20163;-76
2024/02/10 05:02:47;;;;;;;2.80;2.55;;;11.20;99.90;;;;;;5082984;28;20266;-76
2024/02/10 05:05:14;;;;;;;3.33;2.20;;;11.20;99.90;;;;;;5074516;28;20188;-76
2024/02/10 05:07:45;;;;;;;1.90;1.38;;;11.30;99.90;;;;;;5090196;28;20195;-76
2024/02/10 05:10:14;;;;;;;2.50;2.00;;;11.20;99.90;;;;;;5101993;28;20186;-76
2024/02/10 05:12:47;;;;;;;3.92;2.13;;;11.30;99.90;;;;;;5095827;28;20238;-76
2024/02/10 05:15:22;;;;;;;2.63;1.90;;;11.30;99.90;;;;;;5091458;28;20183;-76
2024/02/10 05:17:52;;;;;;;2.35;1.90;;;11.30;99.90;;;;;;5073904;28;20822;-75
2024/02/10 05:20:23;;;;;;;2.33;1.83;;;11.20;99.90;;;;;;5057886;28;20225;-76
2024/02/10 05:22:50;;;;;;;2.78;1.55;;;11.30;99.90;;;;;;5093042;28;20180;-76
2024/02/10 05:25:20;;;;;;;3.05;2.30;;;11.20;99.90;;;;;;5074024;28;20179;-76
2024/02/10 05:27:47;;;;;;;2.60;2.40;;;11.20;99.90;;;;;;5092458;28;20195;-76
2024/02/10 05:30:31;;;;;;;3.13;2.53;;;11.20;99.90;;;;;;5074219;28;20180;-76
2024/02/10 05:33:01;;;;;;;4.03;2.55;;;11.20;99.90;;;;;;5073244;28;20199;-76
2024/02/10 05:35:29;;;;;;;2.97;2.78;;;11.20;99.90;;;;;;5073550;28;20681;-76
2024/02/10 05:37:57;;;;;;;3.22;2.92;;;11.20;99.90;;;;;;5092163;28;20198;-76
2024/02/10 05:40:30;;;;;;;2.58;2.38;;;11.20;99.90;;;;;;5074198;28;20176;-76
2024/02/10 05:43:03;;;;;;;3.17;2.83;;;11.20;99.90;;;;;;5081897;28;20220;-76
2024/02/10 05:45:31;;;;;;;2.53;2.25;;;11.20;99.90;;;;;;5056621;28;20178;-76
2024/02/10 05:47:58;;;;;;;5.80;2.90;;;11.20;99.90;;;;;;5076392;28;20293;-76
2024/02/10 05:50:24;;;;;;;3.22;2.80;;;11.10;99.90;;;;;;5092388;28;20172;-76
2024/02/10 05:52:52;;;;;;;3.95;2.75;;;11.10;99.90;;;;;;5092279;28;20282;-76
2024/02/10 05:55:21;;;;;;;3.60;2.65;;;11.10;99.90;;;;;;5089958;28;20175;-76
2024/02/10 05:57:49;;;;;;;3.15;2.85;;;11.10;99.90;;;;;;5091895;28;20196;-76
2024/02/10 06:00:16;;;;;;;3.55;2.60;;;11.10;99.90;;;;;;5090928;28;20601;-76
2024/02/10 06:02:42;;;;;;;5.20;3.05;;;11.10;99.90;;;;;;5073777;28;20195;-76
2024/02/10 06:05:09;;;;;;;3.75;1.92;;;11.10;99.90;;;;;;5091271;28;20179;-77
2024/02/10 06:07:39;;;;;;;2.78;1.92;;;11.10;99.90;;;;;;5073649;28;20234;-77
2024/02/10 06:10:09;;;;;;;3.00;2.25;;;11.20;99.90;;;;;;5091129;28;20206;-77
2024/02/10 06:12:37;;;;;;;2.50;2.28;;;11.20;99.90;;;;;;5091382;28;20308;-77
2024/02/10 06:15:04;;;;;;;2.40;2.10;;;11.20;99.90;;;;;;5039076;28;20191;-77
2024/02/10 06:17:34;;;;;;;2.65;2.40;;;11.20;99.90;;;;;;5086183;28;20198;-77
2024/02/10 06:20:17;;;;;;;7.07;3.30;;;11.20;99.90;;;;;;5075984;28;20641;-77
2024/02/10 06:22:47;;;;;;;2.90;2.53;;;11.20;99.90;;;;;;5056050;28;20228;-77
2024/02/10 06:25:22;;;;;;;3.55;2.70;;;11.20;99.90;;;;;;5074955;28;20179;-77
2024/02/10 06:27:51;;;;;;;3.42;2.28;;;11.20;99.90;;;;;;5091123;28;20225;-77
2024/02/10 06:30:17;;;;;;;5.00;2.72;;;11.20;99.90;;;;;;5090670;28;20180;-77
2024/02/10 06:32:45;;;;;;;2.90;2.60;;;11.20;99.90;;;;;;5090711;28;20214;-77
2024/02/10 06:35:12;;;;;;;2.85;2.10;;;11.20;99.90;;;;;;5072136;28;20608;-77
2024/02/10 06:37:40;;;;;;;3.45;2.63;;;11.20;99.90;;;;;;5072198;28;20291;-77
2024/02/10 06:40:10;;;;;;;3.75;3.42;;;11.20;99.90;;;;;;5072476;28;20633;-77
2024/02/10 06:42:36;;;;;;;5.25;3.83;;;11.20;99.90;;;;;;5072634;28;20182;-77
2024/02/10 06:45:08;;;;;;;3.10;2.80;;;11.20;99.90;;;;;;5071797;28;20183;-77
2024/02/10 06:47:34;;;;;;;3.65;3.35;;;11.20;99.90;;;;;;5097188;28;20219;-77
2024/02/10 06:50:01;;;;;;;4.38;3.55;;;11.20;99.90;;;;;;5080886;28;20190;-77
2024/02/10 06:52:27;;;;;;;4.72;4.30;;;11.20;99.90;;;;;;5091101;28;20616;-76
2024/02/10 06:54:53;;;;;;;3.77;3.40;;;11.10;99.90;;;;;;5090455;28;20203;-76
2024/02/10 06:57:19;;;;;;;2.88;2.63;;;11.20;99.90;;;;;;5072308;28;20303;-76
2024/02/10 06:59:45;;;;;;;3.13;2.73;;;11.20;99.90;;;;;;5072829;28;20593;-76
2024/02/10 07:02:14;;;;;;;3.97;3.58;;;11.20;99.90;;;;;;5074912;28;20480;-76
2024/02/10 07:04:41;;;;;;;3.47;3.17;;;11.10;99.90;;;;;;5071766;28;20205;-77
2024/02/10 07:07:06;;;;;;;4.97;3.45;;;11.20;99.90;;;;;;5090465;28;20279;-77
2024/02/10 07:09:35;;;;;;;4.10;3.60;;;11.20;99.90;;;;;;5091099;28;20697;-77
2024/02/10 07:12:01;;;;;;;4.20;3.47;;;11.20;99.90;;;;;;5089670;28;20545;-77
2024/02/10 07:14:26;;;;;;;3.93;3.63;;;11.10;99.90;;;;;;5079727;28;20302;-77
2024/02/10 07:16:54;;;;;;;4.77;4.37;;;11.20;99.90;;;;;;5072442;28;20199;-77
2024/02/10 07:19:20;;;;;;;4.20;3.80;;;11.20;99.90;;;;;;5055748;28;20190;-77
2024/02/10 07:21:46;;;;;;;4.57;3.55;;;11.20;99.90;;;;;;5089642;28;20582;-77
2024/02/10 07:24:12;;;;;;;4.47;3.07;;;11.30;99.90;;;;;;5078020;28;20236;-77
2024/02/10 07:26:38;;;;;;;3.87;3.33;;;11.30;99.90;;;;;;5090414;28;20275;-77
2024/02/10 07:29:05;;;;;;;3.75;3.42;;;11.30;99.90;;;;;;5055617;28;20651;-77
2024/02/10 07:31:31;;;;;;;3.38;3.08;;;11.30;99.90;;;;;;5067684;28;20833;-77
2024/02/10 07:33:59;;;;;;;3.07;2.77;;;11.40;99.90;;;;;;5055023;28;20207;-77
2024/02/10 07:36:34;;;;;;;3.40;3.10;;;11.40;99.90;;;;;;5089272;28;20578;-77
2024/02/10 07:39:06;;;;;;;2.83;2.63;;;11.50;99.90;;;;;;5092227;28;20214;-78
2024/02/10 07:41:35;;;;;;;3.17;2.80;;;11.50;99.90;;;;;;5075677;28;20256;-77
2024/02/10 07:44:03;;;;;;;3.05;2.75;;;11.60;99.90;;;;;;5090620;28;20187;-77
2024/02/10 07:46:34;;;;;;;3.20;2.90;;;11.60;99.90;;;;;;5075564;28;20175;-77
2024/02/10 07:49:06;;;;;;;3.90;3.40;;;11.60;99.90;;;;;;5075261;28;20582;-78
2024/02/10 07:51:35;;;;;;;4.18;3.05;;;11.60;99.90;;;;;;5055267;28;20582;-78
2024/02/10 07:54:01;;;;;;;2.60;2.20;;;11.60;99.90;;;;;;5071332;28;20203;-78
2024/02/10 07:56:30;;;;;;;3.80;2.97;;;11.70;99.90;;;;;;5089040;28;20729;-77
2024/02/10 07:58:59;;;;;;;3.10;2.57;;;11.70;99.90;;;;;;5062827;28;20589;-77
2024/02/10 08:01:28;;;;;;;2.38;2.17;;;11.70;99.90;;;;;;5072576;28;20589;-77
2024/02/10 08:03:55;;;;;;;3.77;3.07;;;11.80;99.90;;;;;;5072379;28;20179;-77
2024/02/10 08:06:27;;;;;;;3.05;2.75;;;11.80;99.90;;;;;;5071379;28;20590;-77
2024/02/10 08:09:03;;;;;;;3.27;2.97;;;11.80;99.90;;;;;;5075589;28;20179;-77
2024/02/10 08:11:29;;;;;;;2.20;1.83;;;11.80;99.90;;;;;;5064091;28;20584;-77
2024/02/10 08:13:56;;;;;;;3.30;2.90;;;11.90;99.90;;;;;;5090187;28;21037;-77
2024/02/10 08:16:25;;;;;;;4.13;2.57;;;11.90;99.90;;;;;;5073232;28;20577;-77
2024/02/10 08:18:51;;;;;;;3.23;2.60;;;12.00;99.90;;;;;;5072407;28;20578;-77
2024/02/10 08:21:24;;;;;;;3.50;2.70;;;12.00;99.90;;;;;;5090656;28;20659;-78
2024/02/10 08:23:57;;;;;;;3.50;2.13;;;12.00;99.90;;;;;;5075675;28;20235;-77
2024/02/10 08:26:27;;;;;;;3.23;2.70;;;12.10;99.90;;;;;;5063212;28;20672;-78
2024/02/10 08:28:58;;;;;;;2.80;2.10;;;12.10;99.90;;;;;;5059005;28;20596;-77
2024/02/10 08:31:24;;;;;;;3.20;2.50;;;12.20;99.90;;;;;;5092732;28;20586;-78
2024/02/10 08:33:50;;;;;;;2.93;2.13;;;12.30;99.90;;;;;;5084084;28;20644;-77
2024/02/10 08:36:17;;;;;;;2.70;2.10;;;12.30;99.90;;;;;;5093744;28;20627;-78
2024/02/10 08:38:43;;;;;;;2.20;2.00;;;12.30;99.90;;;;;;5075155;28;20624;-77
2024/02/10 08:41:10;;;;;;;3.10;2.10;;;12.50;99.90;;;;;;5058980;28;20633;-77
2024/02/10 08:43:36;;;;;;;2.77;2.20;;;12.60;99.90;;;;;;5093938;28;20581;-77
2024/02/10 08:46:07;;;;;;;2.53;2.00;;;12.70;99.90;;;;;;5087411;28;20600;-78
2024/02/10 08:48:33;;;;;;;2.10;1.60;;;12.80;99.90;;;;;;5093722;28;20637;-77
2024/02/10 08:50:59;;;;;;;3.43;1.60;;;12.90;99.90;;;;;;5093720;28;20604;-78
2024/02/10 08:53:30;;;;;;;2.40;1.60;;;13.10;99.90;;;;;;5076471;28;21201;-78
2024/02/10 08:55:57;;;;;;;2.87;1.83;;;13.20;99.90;;;;;;5075747;28;20506;-77
2024/02/10 08:58:23;;;;;;;2.03;1.60;;;13.30;99.90;;;;;;5083570;28;20656;-76
2024/02/10 09:00:48;;;;;;;2.10;1.63;;;13.50;99.90;;;;;;5093523;28;20980;-77
2024/02/10 09:03:14;;;;;;;1.63;1.40;;;13.60;99.90;;;;;;5083769;28;20607;-78
2024/02/10 09:05:40;;;;;;;1.83;1.33;;;13.70;99.90;;;;;;5074739;28;20639;-78
2024/02/10 09:08:06;;;;;;;4.73;1.97;;;13.90;99.90;;;;;;5100895;28;20739;-78
2024/02/10 09:10:32;;;;;;;3.50;1.83;;;14.00;99.90;;;;;;5050172;28;20581;-77
2024/02/10 09:12:59;;;;;;;2.00;1.63;;;14.20;99.90;;;;;;5058321;28;20628;-78
2024/02/10 09:15:27;;;;;;;2.80;2.13;;;14.30;99.90;;;;;;5058219;28;20585;-78
2024/02/10 09:17:53;;;;;;;3.20;1.87;;;14.40;99.90;;;;;;5057994;28;20657;-78
2024/02/10 09:20:21;;;;;;;3.50;1.93;;;14.70;99.90;;;;;;5091206;28;20624;-76
2024/02/10 09:22:47;;;;;;;2.83;1.93;;;15.00;99.90;;;;;;5074656;28;20176;-76
2024/02/10 09:25:13;;;;;;;2.30;1.63;;;15.30;99.90;;;;;;5074236;28;20613;-77
2024/02/10 09:27:38;;;;;;;2.33;1.30;;;15.50;99.90;;;;;;5074584;28;20629;-77
2024/02/10 09:30:05;;;;;;;2.80;1.77;;;15.90;99.90;;;;;;5074754;28;20585;-77
2024/02/10 09:32:31;;;;;;;2.70;1.40;;;16.30;99.90;;;;;;5076047;28;21037;-77
2024/02/10 09:34:57;;;;;;;2.27;1.30;;;16.50;99.90;;;;;;5090973;28;20590;-77
2024/02/10 09:37:23;;;;;;;1.87;1.13;;;16.60;99.90;;;;;;5073897;28;20202;-77
2024/02/10 09:39:49;;;;;;;2.77;1.90;;;16.80;99.90;;;;;;5082756;28;21115;-77
2024/02/10 09:42:21;;;;;;;2.93;1.37;;;16.90;99.90;;;;;;5092526;28;20163;-76
2024/02/10 09:44:49;;;;;;;2.37;1.47;;;17.10;99.90;;;;;;5080166;28;20175;-76
2024/02/10 09:47:17;;;;;;;2.07;1.70;;;17.30;99.90;;;;;;5073622;28;20637;-77
2024/02/10 09:49:45;;;;;;;2.43;1.63;;;17.40;99.90;;;;;;5054028;28;20578;-76
2024/02/10 09:52:11;;;;;;;2.67;1.93;;;17.40;99.90;;;;;;5088235;28;20618;-77
2024/02/10 09:54:37;;;;;;;2.10;1.30;;;17.40;99.90;;;;;;5091341;28;20596;-77
2024/02/10 09:57:11;;;;;;;2.43;1.30;;;17.60;99.90;;;;;;5073735;28;21245;-77
2024/02/10 09:59:39;;;;;;;3.20;1.37;;;17.70;99.90;;;;;;5092114;28;20701;-77
2024/02/10 10:02:08;;;;;;;1.80;1.13;;;17.60;99.90;;;;;;5057237;28;20681;-77
2024/02/10 10:04:35;;;;;;;2.07;1.47;;;17.60;99.90;;;;;;5076504;28;20585;-76
2024/02/10 10:07:01;;;;;;;2.20;1.23;;;17.80;99.90;;;;;;5096110;28;21039;-77
2024/02/10 10:09:30;;;;;;;2.50;1.40;;;17.90;99.90;;;;;;5056964;28;20587;-76
2024/02/10 10:11:55;;;;;;;1.87;1.13;;;18.00;99.90;;;;;;5073546;28;20616;-76
2024/02/10 10:14:21;;;;;;;1.80;1.30;;;18.20;99.90;;;;;;5091165;28;21015;-76
2024/02/10 10:16:57;;;;;;;4.27;1.40;;;18.40;99.90;;;;;;5058154;28;20556;-77
2024/02/10 10:19:27;;;;;;;2.40;1.20;;;18.60;99.90;;;;;;5074934;28;20656;-76
2024/02/10 10:21:55;;;;;;;2.30;1.30;;;18.70;99.90;;;;;;5055329;28;20954;-76
2024/02/10 10:24:27;;;;;;;1.90;1.30;;;18.80;99.90;;;;;;5072356;28;20574;-76
2024/02/10 10:27:14;;;;;;;1.77;1.10;;;18.80;99.90;;;;;;5091382;28;20606;-75
2024/02/10 10:29:42;;;;;;;2.13;1.10;;;19.00;99.90;;;;;;5073806;28;20585;-76
2024/02/10 10:32:09;;;;;;;3.30;1.20;;;19.20;99.90;;;;;;5073493;28;21533;-76
2024/02/10 10:34:37;;;;;;;3.10;1.60;;;19.60;99.90;;;;;;5071589;28;20729;-75
2024/02/10 10:37:02;;;;;;;2.00;1.10;;;19.80;99.90;;;;;;5072712;28;20645;-77
2024/02/10 10:39:31;;;;;;;2.17;1.10;;;19.90;99.90;;;;;;5091165;28;20663;-76
2024/02/10 10:41:58;;;;;;;1.70;1.00;;;19.80;99.90;;;;;;5078331;28;20175;-76
2024/02/10 10:44:26;;;;;;;2.00;1.20;;;19.90;99.90;;;;;;5072521;28;20597;-76
2024/02/10 10:46:51;;;;;;;1.70;0.90;;;19.90;99.90;;;;;;5091480;28;20643;-76
2024/02/10 10:49:17;;;;;;;1.87;1.00;;;20.00;99.90;;;;;;5090591;28;20588;-76
2024/02/10 10:52:02;;;;;;;2.87;1.30;;;20.00;99.90;;;;;;5090836;28;20178;-76
2024/02/10 10:54:33;;;;;;;2.10;1.00;;;20.20;99.90;;;;;;5071866;28;20199;-76
2024/02/10 10:57:02;;;;;;;3.07;1.10;;;20.20;99.90;;;;;;5090810;28;20696;-77
2024/02/10 10:59:35;;;;;;;1.50;0.90;;;20.30;99.90;;;;;;5090990;28;20582;-76
2024/02/10 11:02:04;;;;;;;1.77;1.00;;;20.40;99.90;;;;;;5077636;28;20631;-77
2024/02/10 11:04:33;;;;;;;1.90;0.90;;;20.50;99.90;;;;;;5071846;28;20940;-75
2024/02/10 11:07:09;;;;;;;2.10;0.93;;;20.50;99.90;;;;;;5090753;28;20616;-76
2024/02/10 11:09:52;;;;;;;2.77;0.97;;;20.30;99.90;;;;;;5072228;28;20585;-76
2024/02/10 11:12:18;;;;;;;3.10;1.20;;;20.20;99.90;;;;;;5072457;28;20589;-76
2024/02/10 11:14:56;;;;;;;3.97;1.30;;;20.00;99.90;;;;;;5063223;28;20642;-76
2024/02/10 11:17:22;;;;;;;1.80;1.00;;;19.70;99.90;;;;;;5071629;28;20636;-76
2024/02/10 11:20:11;;;;;;;2.40;1.00;;;19.50;99.90;;;;;;5061553;28;21132;-75
2024/02/10 11:22:41;;;;;;;1.80;1.10;;;19.40;99.90;;;;;;5072508;28;20207;-76
2024/02/10 11:25:11;;;;;;;1.93;1.00;;;19.20;99.90;;;;;;5090003;28;20661;-75
2024/02/10 11:27:38;;;;;;;1.90;1.20;;;19.00;99.90;;;;;;5055220;28;20625;-76
2024/02/10 11:30:04;;;;;;;1.87;1.00;;;18.80;99.90;;;;;;5055616;28;20589;-75
2024/02/10 11:32:33;;;;;;;2.03;1.17;;;18.60;99.90;;;;;;5089895;28;20659;-75
2024/02/10 11:34:59;;;;;;;2.27;1.10;;;18.50;99.90;;;;;;5077863;28;20589;-75
2024/02/10 11:37:30;;;;;;;1.70;0.90;;;18.40;99.90;;;;;;5074900;28;20662;-76
2024/02/10 11:39:56;;;;;;;1.90;1.00;;;18.40;99.90;;;;;;5072107;28;20590;-75
2024/02/10 11:42:29;;;;;;;3.00;1.20;;;18.30;99.90;;;;;;5073070;28;20623;-75
2024/02/10 11:44:59;;;;;;;1.67;1.00;;;18.20;99.90;;;;;;5080849;28;20593;-75
2024/02/10 11:47:27;;;;;;;2.20;1.23;;;18.10;99.90;;;;;;5081651;28;20636;-76
2024/02/10 11:49:55;;;;;;;2.30;1.50;;;18.10;99.90;;;;;;5080290;28;20581;-75
2024/02/10 11:52:26;;;;;;;2.97;1.60;;;18.10;99.90;;;;;;5090977;28;20621;-76
2024/02/10 11:54:54;;;;;;;1.60;1.10;;;18.10;99.90;;;;;;5071156;28;21176;-76
2024/02/10 11:57:22;;;;;;;1.90;1.07;;;18.00;99.90;;;;;;5099079;28;21023;-76
2024/02/10 11:59:48;;;;;;;2.00;1.00;;;18.00;99.90;;;;;;5100099;28;20566;-76
2024/02/10 12:02:14;;;;;;;2.27;0.90;;;18.10;99.90;;;;;;5094769;28;20573;-76
2024/02/10 12:04:43;;;;;;;2.60;0.90;;;18.00;99.90;;;;;;5094078;28;21167;-75
2024/02/10 12:07:12;;;;;;;1.60;0.83;;;17.90;99.90;;;;;;5093965;28;20623;-75
2024/02/10 12:09:39;;;;;;;4.00;1.00;;;17.90;99.90;;;;;;5076341;28;20585;-75
2024/02/10 12:12:06;;;;;;;3.40;1.10;;;17.90;99.90;;;;;;5075524;28;21150;-76
2024/02/10 12:14:32;;;;;;;3.30;1.10;;;17.80;99.90;;;;;;5075097;28;20665;-76
2024/02/10 12:17:00;;;;;;;2.23;0.70;;;17.70;99.90;;;;;;5058421;28;20617;-76
2024/02/10 12:19:27;;;;;;;1.80;1.00;;;17.70;99.90;;;;;;5058280;28;20647;-75
2024/02/10 12:21:53;;;;;;;2.20;0.80;;;17.70;99.90;;;;;;5059163;28;20647;-75
2024/02/10 12:24:21;;;;;;;3.10;1.10;;;17.60;99.90;;;;;;5093659;28;20581;-76
2024/02/10 12:26:48;;;;;;;1.90;1.23;;;17.60;99.90;;;;;;5074979;28;20227;-76
2024/02/10 12:29:14;;;;;;;1.80;0.90;;;17.50;99.90;;;;;;5093757;28;20764;-76
2024/02/10 12:31:40;;;;;;;2.73;0.87;;;17.40;99.90;;;;;;5075311;28;20905;-77
2024/02/10 12:34:08;;;;;;;2.10;0.90;;;17.40;99.90;;;;;;5080389;28;20576;-77
2024/02/10 12:36:35;;;;;;;2.20;1.23;;;17.20;99.90;;;;;;5077706;28;20684;-77
2024/02/10 12:39:03;;;;;;;2.57;1.13;;;17.10;99.90;;;;;;5086814;28;20592;-75
2024/02/10 12:41:42;;;;;;;1.87;0.90;;;17.00;99.90;;;;;;5060515;28;20601;-76
2024/02/10 12:44:10;;;;;;;4.17;1.30;;;16.90;99.90;;;;;;5093108;28;20582;-76
2024/02/10 12:46:35;;;;;;;4.73;1.50;;;16.80;99.90;;;;;;5076182;28;20922;-76
2024/02/10 12:49:01;;;;;;;2.47;1.20;;;16.80;99.90;;;;;;5093671;28;20587;-76